createdAt,value
2024-03-19T00:12:56.548Z,6.3
2024-03-19T00:31:23.285Z,7.4
2024-03-19T00:46:49.692Z,6.3
2024-03-19T01:02:13.981Z,6.1
2024-03-19T01:17:38.577Z,5.8
2024-03-19T01:33:03.949Z,6.1
2024-03-19T01:48:28.526Z,6.2
2024-03-19T02:03:53.589Z,6.2
2024-03-19T02:19:18.471Z,5.9
2024-03-19T02:34:43.079Z,5.6
2024-03-19T02:50:08.328Z,5.8
2024-03-19T03:05:33.526Z,5.9
2024-03-19T03:20:58.436Z,6.1
2024-03-19T03:36:22.926Z,5.8
2024-03-19T03:51:48.111Z,5.5
2024-03-19T04:07:12.162Z,5.8
2024-03-19T04:22:37.364Z,5.3
2024-03-19T04:38:01.936Z,6.2
2024-03-19T04:53:26.625Z,6.1
2024-03-19T05:08:51.684Z,5.7
2024-03-19T05:24:16.458Z,5.4
2024-03-19T05:39:40.864Z,5.9
2024-03-19T05:55:05.736Z,6
2024-03-19T06:10:31.349Z,6.1
2024-03-19T06:25:56.121Z,6.3
2024-03-19T06:41:21.014Z,6.5
2024-03-19T06:56:45.703Z,7.4
2024-03-19T07:12:10.881Z,7.1
2024-03-19T07:27:35.869Z,7.7
2024-03-19T07:43:01.362Z,7.5
2024-03-19T07:58:26.107Z,8.6
2024-03-19T08:13:51.046Z,9.3
2024-03-19T08:29:16.471Z,11
2024-03-19T08:44:41.812Z,11.2
2024-03-19T09:00:07.121Z,11.6
2024-03-19T09:15:32.820Z,13.9
2024-03-19T09:30:57.734Z,14.6
2024-03-19T09:46:22.999Z,15
2024-03-19T10:01:47.881Z,16.3
2024-03-19T10:17:13.268Z,19.9
2024-03-19T10:32:38.796Z,19.4
2024-03-19T10:48:03.926Z,20
2024-03-19T11:03:29.055Z,19.6
2024-03-19T11:18:54.550Z,19.4
2024-03-19T11:34:20.067Z,19.5
2024-03-19T11:49:46.160Z,19.9
2024-03-19T12:05:11.257Z,18.2
2024-03-19T12:20:39.009Z,18.4
2024-03-19T12:36:03.899Z,17.8
2024-03-19T12:51:29.386Z,23.7
2024-03-19T13:06:54.057Z,16.2
2024-03-19T13:22:18.995Z,17.4
2024-03-19T13:37:43.936Z,16.7
2024-03-19T13:53:09.973Z,16.7
2024-03-19T14:08:35.364Z,17.1
2024-03-19T14:24:00.768Z,16.4
2024-03-19T14:39:26.040Z,23.4
2024-03-19T14:54:51.017Z,17.4
2024-03-19T15:10:16.226Z,17.6
2024-03-19T15:25:41.437Z,16.6
2024-03-19T15:41:06.402Z,17.2
2024-03-19T15:56:31.380Z,17.5
2024-03-19T16:11:56.125Z,16.9
2024-03-19T16:27:21.038Z,15.8
2024-03-19T16:42:49.123Z,15.9
2024-03-19T16:58:15.426Z,17.9
2024-03-19T17:13:40.584Z,21.3
2024-03-19T17:29:05.401Z,22.1
2024-03-19T17:44:30.291Z,19
2024-03-19T17:59:55.461Z,29.8
2024-03-19T18:15:20.310Z,23.5
2024-03-19T18:30:44.675Z,22.8
2024-03-19T18:46:09.510Z,19.4
2024-03-19T19:01:34.592Z,19.3
2024-03-19T19:16:59.547Z,19.2
2024-03-19T19:32:24.450Z,20.1
2024-03-19T19:47:49.474Z,19.1
2024-03-19T20:03:14.574Z,21.5
2024-03-19T20:18:40.029Z,21.8
2024-03-19T20:34:04.707Z,22.1
2024-03-19T20:49:29.799Z,21.8
2024-03-19T21:04:54.827Z,20.9
2024-03-19T21:20:19.968Z,21.3
2024-03-19T21:35:45.564Z,21
2024-03-19T21:51:09.506Z,19.3
2024-03-19T22:06:34.045Z,19.8
2024-03-19T22:21:58.992Z,19.4
2024-03-19T22:37:23.735Z,19.6
2024-03-19T22:52:48.676Z,18.7
2024-03-19T23:08:13.080Z,18.8
2024-03-19T23:23:37.908Z,18.8
2024-03-19T23:39:02.585Z,18.4
2024-03-19T23:54:27.896Z,17.8
